createdAt,value
2023-06-24T00:02:08.811Z,98388.31
2023-06-24T00:04:37.370Z,98388.13
2023-06-24T00:07:05.940Z,98391.00
2023-06-24T00:09:34.692Z,98387.28
2023-06-24T00:12:06.106Z,98395.34
2023-06-24T00:14:34.465Z,98388.94
2023-06-24T00:17:03.069Z,98385.44
2023-06-24T00:19:32.641Z,98383.56
2023-06-24T00:22:04.628Z,98388.13
2023-06-24T00:24:32.985Z,98391.81
2023-06-24T00:27:01.306Z,98394.50
2023-06-24T00:29:31.026Z,98398.03
2023-06-24T00:31:59.406Z,98396.19
2023-06-24T00:34:27.721Z,98388.13
2023-06-24T00:36:56.459Z,98381.91
2023-06-24T00:39:24.804Z,98384.44
2023-06-24T00:41:53.201Z,98387.97
2023-06-24T00:44:22.069Z,98378.03
2023-06-24T00:46:51.780Z,98373.50
2023-06-24T00:49:20.149Z,98377.84
2023-06-24T00:51:51.469Z,98373.50
2023-06-24T00:54:20.358Z,98370.81
2023-06-24T00:56:49.113Z,98365.44
2023-06-24T00:59:18.939Z,98366.28
2023-06-24T01:01:54.102Z,98360.25
2023-06-24T01:04:22.544Z,98357.56
2023-06-24T01:06:51.726Z,98359.22
2023-06-24T01:09:24.858Z,98351.16
2023-06-24T01:11:53.227Z,98354.72
2023-06-24T01:14:24.045Z,98358.25
2023-06-24T01:17:01.640Z,98360.06
2023-06-24T01:19:58.526Z,98361.91
2023-06-24T01:23:28.839Z,98352.19
2023-06-24T01:26:35.707Z,98356.91
2023-06-24T01:29:51.658Z,98354.22
2023-06-24T01:32:30.344Z,98350.72
2023-06-24T01:35:03.111Z,98343.47
2023-06-24T01:37:38.941Z,98334.44
2023-06-24T01:40:14.809Z,98337.13
2023-06-24T01:42:45.498Z,98345.81
2023-06-24T01:45:18.896Z,98345.97
2023-06-24T01:47:51.189Z,98343.31
2023-06-24T01:50:24.394Z,98343.97
2023-06-24T01:52:55.530Z,98344.81
2023-06-24T01:55:25.907Z,98341.47
2023-06-24T01:57:54.904Z,98339.44
2023-06-24T02:00:28.113Z,98341.28
2023-06-24T02:02:59.226Z,98338.59
2023-06-24T02:05:28.721Z,98342.31
2023-06-24T02:08:02.329Z,98335.06
2023-06-24T02:10:32.899Z,98336.75
2023-06-24T02:13:03.661Z,98339.63
2023-06-24T02:15:35.847Z,98352.88
2023-06-24T02:18:07.400Z,98352.03
2023-06-24T02:20:36.494Z,98358.25
2023-06-24T02:23:06.203Z,98363.59
2023-06-24T02:25:35.470Z,98355.56
2023-06-24T02:28:04.263Z,98363.44
2023-06-24T02:30:33.080Z,98358.88
2023-06-24T02:33:01.555Z,98359.91
2023-06-24T02:35:31.541Z,98366.13
2023-06-24T02:37:59.935Z,98373.31
2023-06-24T02:40:29.258Z,98374.97
2023-06-24T02:42:58.798Z,98374.97
2023-06-24T02:45:27.786Z,98372.28
2023-06-24T02:47:58.037Z,98372.28
2023-06-24T02:50:27.862Z,98376.84
2023-06-24T02:53:00.975Z,98373.50
2023-06-24T02:55:30.100Z,98377.22
2023-06-24T02:57:59.250Z,98375.34
2023-06-24T03:00:32.302Z,98389.78
2023-06-24T03:03:01.322Z,98389.78
2023-06-24T03:05:34.082Z,98393.31
2023-06-24T03:08:05.123Z,98393.50
2023-06-24T03:10:38.408Z,98396.19
2023-06-24T03:13:06.775Z,98403.22
2023-06-24T03:15:35.363Z,98401.56
2023-06-24T03:18:03.831Z,98402.38
2023-06-24T03:20:41.677Z,98408.78
2023-06-24T03:23:11.769Z,98418.66
2023-06-24T03:25:40.157Z,98418.66
2023-06-24T03:28:08.821Z,98417.00
2023-06-24T03:30:37.338Z,98421.53
2023-06-24T03:33:06.989Z,98424.22
2023-06-24T03:35:35.570Z,98425.25
2023-06-24T03:38:04.251Z,98424.38
2023-06-24T03:40:39.498Z,98428.94
2023-06-24T03:43:10.550Z,98425.78
2023-06-24T03:45:39.009Z,98435.66
2023-06-24T03:48:08.171Z,98432.16
2023-06-24T03:50:39.384Z,98429.47
2023-06-24T03:53:08.825Z,98425.09
2023-06-24T03:55:38.545Z,98429.47
2023-06-24T03:58:06.849Z,98426.97
2023-06-24T04:00:35.195Z,98424.47
2023-06-24T04:03:03.570Z,98430.66
2023-06-24T04:05:35.048Z,98427.97
2023-06-24T04:08:06.886Z,98429.84
2023-06-24T04:10:35.162Z,98434.34
2023-06-24T04:13:04.859Z,98433.50
2023-06-24T04:15:33.335Z,98439.91
2023-06-24T04:18:01.886Z,98432.88
2023-06-24T04:20:33.037Z,98433.88
2023-06-24T04:23:02.205Z,98435.56
2023-06-24T04:25:30.479Z,98434.88
2023-06-24T04:27:58.824Z,98434.72
2023-06-24T04:30:28.492Z,98442.59
2023-06-24T04:32:56.885Z,98438.06
2023-06-24T04:35:26.174Z,98439.72
2023-06-24T04:37:54.536Z,98443.25
2023-06-24T04:40:22.833Z,98443.09
2023-06-24T04:42:51.336Z,98446.22
2023-06-24T04:45:19.667Z,98444.22
2023-06-24T04:47:49.472Z,98442.19
2023-06-24T04:50:17.873Z,98443.84
2023-06-24T04:52:48.030Z,98446.38
2023-06-24T04:55:19.164Z,98443.50
2023-06-24T04:57:47.500Z,98451.19
2023-06-24T05:00:16.853Z,98451.88
2023-06-24T05:02:45.276Z,98449.81
2023-06-24T05:05:15.042Z,98451.31
2023-06-24T05:07:43.454Z,98461.50
2023-06-24T05:10:11.851Z,98454.13
2023-06-24T05:12:40.171Z,98459.31
2023-06-24T05:15:10.541Z,98461.81
2023-06-24T05:17:39.180Z,98463.31
2023-06-24T05:20:09.226Z,98469.16
2023-06-24T05:22:39.071Z,98467.97
2023-06-24T05:25:08.640Z,98472.81
2023-06-24T05:27:39.862Z,98472.47
2023-06-24T05:30:10.109Z,98470.28
2023-06-24T05:32:38.445Z,98480.84
2023-06-24T05:35:08.201Z,98482.16
2023-06-24T05:37:37.890Z,98486.53
2023-06-24T05:40:08.690Z,98492.34
2023-06-24T05:42:37.052Z,98491.19
2023-06-24T05:45:07.258Z,98488.13
2023-06-24T05:47:35.651Z,98492.13
2023-06-24T05:50:04.088Z,98486.38
2023-06-24T05:52:32.377Z,98481.63
2023-06-24T05:55:02.065Z,98485.00
2023-06-24T05:57:33.165Z,98489.81
2023-06-24T06:00:01.607Z,98486.59
2023-06-24T06:02:29.991Z,98491.59
2023-06-24T06:05:03.975Z,98489.59
2023-06-24T06:07:32.303Z,98492.72
2023-06-24T06:10:02.029Z,98496.75
2023-06-24T06:12:30.311Z,98505.25
2023-06-24T06:14:58.627Z,98493.16
2023-06-24T06:17:26.976Z,98491.56
2023-06-24T06:19:55.384Z,98497.38
2023-06-24T06:22:23.721Z,98493.34
2023-06-24T06:24:52.091Z,98493.63
2023-06-24T06:27:21.761Z,98497.66
2023-06-24T06:29:50.065Z,98503.28
2023-06-24T06:32:18.379Z,98503.09
2023-06-24T06:34:52.942Z,98504.25
2023-06-24T06:37:21.305Z,98509.06
2023-06-24T06:39:49.626Z,98500.63
2023-06-24T06:42:53.734Z,98502.09
2023-06-24T06:45:24.699Z,98505.09
2023-06-24T06:47:53.290Z,98499.13
2023-06-24T06:50:21.827Z,98497.38
2023-06-24T06:52:50.192Z,98508.19
2023-06-24T06:55:21.195Z,98500.41
2023-06-24T06:57:49.825Z,98496.97
2023-06-24T07:00:22.648Z,98498.91
2023-06-24T07:02:51.109Z,98503.59
2023-06-24T07:05:25.076Z,98498.28
2023-06-24T07:07:54.869Z,98494.81
2023-06-24T07:10:23.434Z,98491.72
2023-06-24T07:12:52.272Z,98502.59
2023-06-24T07:15:22.054Z,98500.19
2023-06-24T07:17:50.437Z,98502.13
2023-06-24T07:20:18.804Z,98498.84
2023-06-24T07:22:47.083Z,98502.63
2023-06-24T07:25:15.631Z,98494.44
2023-06-24T07:27:43.950Z,98493.84
2023-06-24T07:30:12.929Z,98499.09
2023-06-24T07:32:42.661Z,98498.31
2023-06-24T07:35:11.558Z,98497.41
2023-06-24T07:37:39.925Z,98500.41
2023-06-24T07:40:10.375Z,98490.31
2023-06-24T07:42:38.787Z,98495.56
2023-06-24T07:45:08.589Z,98491.88
2023-06-24T07:47:37.035Z,98491.09
2023-06-24T07:50:12.008Z,98490.69
2023-06-24T07:52:40.638Z,98496.78
2023-06-24T07:55:09.997Z,98496.84
2023-06-24T07:57:38.368Z,98498.78
2023-06-24T08:00:11.144Z,98506.69
2023-06-24T08:02:39.529Z,98503.00
2023-06-24T08:05:11.079Z,98499.06
2023-06-24T08:07:40.500Z,98507.41
2023-06-24T08:10:12.545Z,98509.69
2023-06-24T08:12:40.839Z,98501.63
2023-06-24T08:15:10.406Z,98502.72
2023-06-24T08:17:39.032Z,98491.09
2023-06-24T08:20:13.639Z,98493.63
2023-06-24T08:22:41.966Z,98490.97
2023-06-24T08:25:10.845Z,98496.47
2023-06-24T08:27:39.770Z,98496.50
2023-06-24T08:30:15.253Z,98493.63
2023-06-24T08:32:43.719Z,98484.72
2023-06-24T08:35:13.775Z,98491.59
2023-06-24T08:37:42.771Z,98491.81
2023-06-24T08:40:12.164Z,98490.16
2023-06-24T08:42:40.479Z,98480.63
2023-06-24T08:45:12.722Z,98484.59
2023-06-24T08:47:43.161Z,98481.66
2023-06-24T08:50:15.015Z,98479.38
2023-06-24T08:52:47.933Z,98484.78
2023-06-24T08:55:28.232Z,98492.28
2023-06-24T08:57:56.633Z,98488.09
2023-06-24T09:00:25.557Z,98486.63
2023-06-24T09:02:53.903Z,98491.19
2023-06-24T09:05:23.677Z,98480.56
2023-06-24T09:07:52.042Z,98484.06
2023-06-24T09:10:37.010Z,98487.31
2023-06-24T09:13:07.618Z,98492.53
2023-06-24T09:15:37.179Z,98485.53
2023-06-24T09:18:06.762Z,98479.00
2023-06-24T09:20:45.784Z,98478.69
2023-06-24T09:23:14.343Z,98479.69
2023-06-24T09:25:45.051Z,98474.78
2023-06-24T09:28:16.053Z,98469.84
2023-06-24T09:30:53.763Z,98474.31
2023-06-24T09:33:24.963Z,98468.44
2023-06-24T09:35:55.143Z,98474.72
2023-06-24T09:38:35.834Z,98461.81
2023-06-24T09:41:16.268Z,98463.81
2023-06-24T09:43:46.247Z,98465.75
2023-06-24T09:46:15.100Z,98466.38
2023-06-24T09:48:43.446Z,98462.16
2023-06-24T09:51:15.680Z,98464.06
2023-06-24T09:53:45.795Z,98457.78
2023-06-24T09:56:16.500Z,98460.50
2023-06-24T09:58:46.921Z,98459.06
2023-06-24T10:01:17.637Z,98454.84
2023-06-24T10:03:46.476Z,98443.53
2023-06-24T10:06:16.518Z,98438.00
2023-06-24T10:08:47.896Z,98447.53
2023-06-24T10:11:16.270Z,98438.34
2023-06-24T10:13:44.738Z,98441.25
2023-06-24T10:16:13.314Z,98427.72
2023-06-24T10:18:42.434Z,98436.97
2023-06-24T10:21:11.736Z,98432.50
2023-06-24T10:23:54.254Z,98417.59
2023-06-24T10:26:29.487Z,98418.78
2023-06-24T10:29:18.583Z,98412.50
2023-06-24T10:31:56.972Z,98413.94
2023-06-24T10:34:33.727Z,98413.09
2023-06-24T10:37:04.324Z,98409.91
2023-06-24T10:39:51.466Z,98410.75
2023-06-24T10:42:44.910Z,98411.31
2023-06-24T10:45:19.878Z,98404.00
2023-06-24T10:47:50.529Z,98406.88
2023-06-24T10:50:22.476Z,98404.84
2023-06-24T10:52:56.218Z,98405.56
2023-06-24T10:55:27.467Z,98412.94
2023-06-24T10:57:56.244Z,98399.94
2023-06-24T11:00:24.644Z,98393.75
2023-06-24T11:02:53.064Z,98385.06
2023-06-24T11:05:21.467Z,98384.03
2023-06-24T11:07:49.812Z,98380.66
2023-06-24T11:10:18.632Z,98375.09
2023-06-24T11:12:48.836Z,98364.53
2023-06-24T11:15:17.255Z,98362.72
2023-06-24T11:17:45.761Z,98351.69
2023-06-24T11:20:16.013Z,98352.59
2023-06-24T11:22:45.864Z,98349.00
2023-06-24T11:25:18.801Z,98349.47
2023-06-24T11:27:48.866Z,98345.81
2023-06-24T11:30:18.856Z,98337.84
2023-06-24T11:32:49.029Z,98345.09
2023-06-24T11:35:18.219Z,98338.78
2023-06-24T11:37:49.183Z,98334.22
2023-06-24T11:40:21.463Z,98335.31
2023-06-24T11:42:52.177Z,98332.59
2023-06-24T11:45:24.073Z,98328.66
2023-06-24T11:47:53.453Z,98321.19
2023-06-24T11:50:29.129Z,98322.03
2023-06-24T11:52:57.598Z,98316.09
2023-06-24T11:55:29.865Z,98307.50
2023-06-24T11:58:02.646Z,98314.69
2023-06-24T12:00:34.033Z,98301.69
2023-06-24T12:03:05.864Z,98297.38
2023-06-24T12:05:37.841Z,98289.84
2023-06-24T12:08:10.134Z,98292.47
2023-06-24T12:10:40.591Z,98288.56
2023-06-24T12:13:10.657Z,98298.22
2023-06-24T12:15:39.427Z,98285.47
2023-06-24T12:18:07.885Z,98291.50
2023-06-24T12:20:38.967Z,98288.22
2023-06-24T12:23:08.255Z,98289.22
2023-06-24T12:25:36.660Z,98285.31
2023-06-24T12:28:05.182Z,98286.91
2023-06-24T12:30:35.243Z,98280.78
2023-06-24T12:33:04.242Z,98282.34
2023-06-24T12:35:35.593Z,98279.81
2023-06-24T12:38:03.990Z,98269.06
2023-06-24T12:40:32.365Z,98278.75
2023-06-24T12:43:01.051Z,98269.59
2023-06-24T12:45:29.393Z,98274.41
2023-06-24T12:48:00.417Z,98268.38
2023-06-24T12:50:28.889Z,98261.00
2023-06-24T12:52:57.315Z,98259.16
2023-06-24T12:55:25.719Z,98257.03
2023-06-24T12:57:54.109Z,98253.28
2023-06-24T13:00:23.614Z,98254.78
2023-06-24T13:02:52.779Z,98249.94
2023-06-24T13:05:23.328Z,98248.44
2023-06-24T13:07:51.868Z,98247.75
2023-06-24T13:10:20.655Z,98246.56
2023-06-24T13:12:51.362Z,98247.47
2023-06-24T13:15:21.017Z,98240.97
2023-06-24T13:17:49.430Z,98239.81
2023-06-24T13:20:18.088Z,98245.25
2023-06-24T13:22:47.882Z,98241.31
2023-06-24T13:25:17.013Z,98242.78
2023-06-24T13:27:46.295Z,98245.69
2023-06-24T13:30:22.922Z,98240.44
2023-06-24T13:32:51.421Z,98235.47
2023-06-24T13:35:19.878Z,98235.22
2023-06-24T13:37:49.735Z,98236.88
2023-06-24T13:40:18.331Z,98237.19
2023-06-24T13:42:46.702Z,98228.69
2023-06-24T13:45:15.050Z,98233.31
2023-06-24T13:47:54.432Z,98238.22
2023-06-24T13:50:22.915Z,98227.53
2023-06-24T13:52:52.702Z,98230.03
2023-06-24T13:55:21.034Z,98231.84
2023-06-24T13:57:49.478Z,98226.06
2023-06-24T14:00:19.120Z,98224.09
2023-06-24T14:02:47.604Z,98220.69
2023-06-24T14:05:16.090Z,98218.72
2023-06-24T14:07:44.608Z,98221.69
2023-06-24T14:10:14.513Z,98215.19
2023-06-24T14:12:43.756Z,98207.78
2023-06-24T14:15:12.896Z,98213.84
2023-06-24T14:17:41.176Z,98209.28
2023-06-24T14:20:11.521Z,98202.16
2023-06-24T14:22:39.912Z,98202.81
2023-06-24T14:25:17.921Z,98191.88
2023-06-24T14:27:46.913Z,98187.00
2023-06-24T14:30:15.558Z,98180.69
2023-06-24T14:32:43.941Z,98176.91
2023-06-24T14:35:12.363Z,98173.16
2023-06-24T14:37:40.688Z,98166.94
2023-06-24T14:40:18.171Z,98170.84
2023-06-24T14:42:46.460Z,98173.66
2023-06-24T14:45:14.991Z,98168.91
2023-06-24T14:47:43.417Z,98177.94
2023-06-24T14:50:17.228Z,98166.75
2023-06-24T14:52:45.721Z,98171.97
2023-06-24T14:55:14.169Z,98162.25
2023-06-24T14:57:43.892Z,98163.09
2023-06-24T15:00:14.543Z,98155.53
2023-06-24T15:02:43.044Z,98160.53
2023-06-24T15:05:11.566Z,98161.72
2023-06-24T15:07:39.966Z,98159.94
2023-06-24T15:10:09.693Z,98160.53
2023-06-24T15:12:38.780Z,98145.78
2023-06-24T15:15:09.657Z,98150.19
2023-06-24T15:17:41.269Z,98150.47
2023-06-24T15:20:17.081Z,98155.94
2023-06-24T15:22:45.445Z,98154.28
2023-06-24T15:25:14.410Z,98157.53
2023-06-24T15:27:42.818Z,98152.59
2023-06-24T15:30:14.264Z,98147.06
2023-06-24T15:32:43.780Z,98150.56
2023-06-24T15:35:12.266Z,98140.38
2023-06-24T15:37:40.643Z,98135.94
2023-06-24T15:40:13.024Z,98137.00
2023-06-24T15:42:41.484Z,98135.88
2023-06-24T15:45:12.268Z,98133.66
2023-06-24T15:47:40.636Z,98127.94
2023-06-24T15:50:10.840Z,98135.31
2023-06-24T15:52:39.879Z,98130.06
2023-06-24T15:55:10.705Z,98128.97
2023-06-24T15:57:39.142Z,98127.63
2023-06-24T16:00:11.548Z,98135.88
2023-06-24T16:02:41.446Z,98131.25
2023-06-24T16:05:10.620Z,98123.97
2023-06-24T16:07:39.040Z,98128.38
2023-06-24T16:10:10.943Z,98118.03
2023-06-24T16:12:39.355Z,98117.25
2023-06-24T16:15:09.492Z,98119.47
2023-06-24T16:17:41.814Z,98118.41
2023-06-24T16:20:15.587Z,98121.47
2023-06-24T16:22:44.108Z,98119.84
2023-06-24T16:25:12.983Z,98110.84
2023-06-24T16:27:41.698Z,98114.94
2023-06-24T16:30:10.917Z,98107.84
2023-06-24T16:32:39.313Z,98108.69
2023-06-24T16:35:09.597Z,98111.97
2023-06-24T16:37:42.425Z,98104.84
2023-06-24T16:40:11.752Z,98104.84
2023-06-24T16:42:40.087Z,98105.13
2023-06-24T16:45:12.521Z,98104.59
2023-06-24T16:47:41.019Z,98105.66
2023-06-24T16:50:11.183Z,98101.28
2023-06-24T16:52:41.000Z,98095.53
2023-06-24T16:55:14.500Z,98095.53
2023-06-24T16:57:43.451Z,98098.00
2023-06-24T17:00:13.450Z,98095.28
2023-06-24T17:02:42.608Z,98095.81
2023-06-24T17:05:11.350Z,98098.56
2023-06-24T17:07:41.086Z,98096.91
2023-06-24T17:10:10.123Z,98100.44
2023-06-24T17:12:39.780Z,98099.31
2023-06-24T17:15:11.364Z,98085.06
2023-06-24T17:17:39.826Z,98095.38
2023-06-24T17:20:10.418Z,98097.72
2023-06-24T17:22:40.168Z,98092.19
2023-06-24T17:25:09.671Z,98091.84
2023-06-24T17:27:38.041Z,98090.66
2023-06-24T17:30:10.828Z,98082.31
2023-06-24T17:32:39.271Z,98087.63
2023-06-24T17:35:08.872Z,98081.50
2023-06-24T17:37:37.252Z,98081.69
2023-06-24T17:40:09.233Z,98084.63
2023-06-24T17:42:37.760Z,98085.88
2023-06-24T17:45:07.828Z,98076.19
2023-06-24T17:47:36.331Z,98082.31
2023-06-24T17:50:05.467Z,98081.69
2023-06-24T17:52:33.874Z,98076.91
2023-06-24T17:55:03.014Z,98086.38
2023-06-24T17:57:32.901Z,98083.00
2023-06-24T18:00:01.297Z,98078.81
2023-06-24T18:02:32.174Z,98082.53
2023-06-24T18:05:05.317Z,98076.66
2023-06-24T18:07:33.966Z,98082.53
2023-06-24T18:10:02.590Z,98067.66
2023-06-24T18:12:32.446Z,98076.03
2023-06-24T18:15:06.467Z,98077.28
2023-06-24T18:17:34.907Z,98074.69
2023-06-24T18:20:06.470Z,98079.00
2023-06-24T18:22:34.808Z,98077.50
2023-06-24T18:25:03.969Z,98071.38
2023-06-24T18:27:33.824Z,98076.13
2023-06-24T18:30:07.331Z,98075.72
2023-06-24T18:32:35.722Z,98067.94
2023-06-24T18:35:04.305Z,98070.00
2023-06-24T18:37:32.948Z,98070.16
2023-06-24T18:40:03.535Z,98071.63
2023-06-24T18:42:33.344Z,98062.72
2023-06-24T18:45:04.600Z,98061.22
2023-06-24T18:47:33.052Z,98063.53
2023-06-24T18:50:05.360Z,98064.72
2023-06-24T18:52:33.720Z,98067.00
2023-06-24T18:55:05.029Z,98066.34
2023-06-24T18:57:34.817Z,98066.94
2023-06-24T19:00:06.288Z,98062.06
2023-06-24T19:02:34.848Z,98070.84
2023-06-24T19:05:03.307Z,98071.22
2023-06-24T19:07:31.933Z,98070.75
2023-06-24T19:10:01.891Z,98072.78
2023-06-24T19:12:34.031Z,98070.66
2023-06-24T19:15:02.421Z,98072.91
2023-06-24T19:17:31.039Z,98073.22
2023-06-24T19:19:59.440Z,98076.31
2023-06-24T19:22:27.777Z,98077.94
2023-06-24T19:24:56.197Z,98076.84
2023-06-24T19:27:25.061Z,98083.69
2023-06-24T19:29:54.864Z,98078.59
2023-06-24T19:32:23.395Z,98089.16
2023-06-24T19:34:51.897Z,98085.72
2023-06-24T19:37:20.313Z,98079.53
2023-06-24T19:39:48.716Z,98077.16
2023-06-24T19:42:17.064Z,98079.97
2023-06-24T19:44:45.568Z,98088.19
2023-06-24T19:47:17.884Z,98085.19
2023-06-24T19:49:52.716Z,98091.53
2023-06-24T19:52:21.498Z,98082.63
2023-06-24T19:54:50.901Z,98090.03
2023-06-24T19:57:21.064Z,98078.88
2023-06-24T19:59:49.636Z,98080.22
2023-06-24T20:02:19.484Z,98093.25
2023-06-24T20:04:48.163Z,98087.53
2023-06-24T20:07:17.400Z,98094.09
2023-06-24T20:09:46.075Z,98090.81
2023-06-24T20:12:14.553Z,98091.09
2023-06-24T20:14:42.962Z,98080.78
2023-06-24T20:17:11.354Z,98094.59
2023-06-24T20:19:41.199Z,98092.16
2023-06-24T20:22:09.966Z,98094.34
2023-06-24T20:24:38.363Z,98082.97
2023-06-24T20:27:07.322Z,98093.81
2023-06-24T20:29:35.632Z,98100.94
2023-06-24T20:32:03.991Z,98104.72
2023-06-24T20:34:32.341Z,98102.06
2023-06-24T20:37:02.118Z,98101.28
2023-06-24T20:39:30.386Z,98101.53
2023-06-24T20:41:59.261Z,98098.03
2023-06-24T20:44:27.650Z,98104.75
2023-06-24T20:46:56.101Z,98099.63
2023-06-24T20:49:24.453Z,98100.47
2023-06-24T20:51:52.744Z,98101.31
2023-06-24T20:54:22.692Z,98094.28
2023-06-24T20:56:51.861Z,98099.69
2023-06-24T20:59:20.147Z,98094.31
2023-06-24T21:01:48.528Z,98089.38
2023-06-24T21:04:17.297Z,98090.84
2023-06-24T21:06:45.808Z,98092.31
2023-06-24T21:09:14.382Z,98091.28
2023-06-24T21:11:44.117Z,98099.19
2023-06-24T21:14:12.444Z,98093.00
2023-06-24T21:16:40.852Z,98098.19
2023-06-24T21:19:09.667Z,98086.53
2023-06-24T21:21:38.051Z,98097.13
2023-06-24T21:24:08.473Z,98099.25
2023-06-24T21:26:36.817Z,98095.53
2023-06-24T21:29:06.516Z,98101.56
2023-06-24T21:31:34.901Z,98099.69
2023-06-24T21:34:03.310Z,98101.34
2023-06-24T21:36:31.648Z,98111.09
2023-06-24T21:38:59.946Z,98112.78
2023-06-24T21:41:28.441Z,98119.63
2023-06-24T21:43:57.624Z,98111.31
2023-06-24T21:46:27.454Z,98116.69
2023-06-24T21:48:55.854Z,98111.28
2023-06-24T21:51:24.195Z,98114.81
2023-06-24T21:53:52.509Z,98109.59
2023-06-24T21:56:20.876Z,98118.09
2023-06-24T21:58:49.211Z,98119.75
2023-06-24T22:01:18.070Z,98121.44
2023-06-24T22:03:47.791Z,98121.41
2023-06-24T22:06:16.210Z,98119.50
2023-06-24T22:08:44.598Z,98118.47
2023-06-24T22:11:12.982Z,98118.44
2023-06-24T22:13:41.369Z,98121.75
2023-06-24T22:16:11.762Z,98119.00
2023-06-24T22:18:40.188Z,98116.91
2023-06-24T22:21:09.919Z,98113.34
2023-06-24T22:23:38.303Z,98113.13
2023-06-24T22:26:06.730Z,98112.09
2023-06-24T22:28:35.054Z,98111.00
2023-06-24T22:31:03.596Z,98108.09
2023-06-24T22:33:32.131Z,98107.88
2023-06-24T22:36:00.551Z,98103.72
2023-06-24T22:38:30.263Z,98110.50
2023-06-24T22:40:58.681Z,98102.81
2023-06-24T22:43:28.114Z,98111.50
2023-06-24T22:45:56.566Z,98109.41
2023-06-24T22:48:24.960Z,98103.81
2023-06-24T22:50:53.392Z,98111.44
2023-06-24T22:53:21.787Z,98117.03
2023-06-24T22:55:51.533Z,98115.94
2023-06-24T22:58:19.938Z,98112.19
2023-06-24T23:00:48.261Z,98107.38
2023-06-24T23:03:17.588Z,98118.75
2023-06-24T23:05:46.724Z,98110.22
2023-06-24T23:08:15.785Z,98114.53
2023-06-24T23:10:44.935Z,98107.84
2023-06-24T23:13:15.217Z,98097.88
2023-06-24T23:15:44.885Z,98101.19
2023-06-24T23:18:13.694Z,98098.03
2023-06-24T23:20:43.665Z,98102.97
2023-06-24T23:23:14.775Z,98101.91
2023-06-24T23:25:43.770Z,98103.31
2023-06-24T23:28:17.235Z,98098.72
2023-06-24T23:30:47.513Z,98100.75
2023-06-24T23:33:18.253Z,98095.97
2023-06-24T23:35:49.911Z,98099.41
2023-06-24T23:38:20.764Z,98096.25
2023-06-24T23:40:50.143Z,98096.63
2023-06-24T23:43:21.617Z,98088.72
2023-06-24T23:45:52.454Z,98096.97
2023-06-24T23:48:21.204Z,98085.13
2023-06-24T23:50:49.546Z,98085.72
2023-06-24T23:53:17.983Z,98088.13
2023-06-24T23:55:46.344Z,98081.50
2023-06-24T23:58:14.704Z,98089.09
